Time;durP1;ratioP1;P1;durP2;ratioP2;P2;SDS_P1;SDS_P2;PMS_P1;PMS_P2;Temp;Humidity;BMP_temperature;BMP_pressure;BME280_temperature;BME280_humidity;BME280_pressure;Samples;Min_cycle;Max_cycle;Signal;HPM_P1;HPM_P2
2023/08/28 00:00:12;;;;;;;11.50;5.68;;;;;;;26.36;62.78;97251.41;4485050;32;20100;-84
2023/08/28 00:02:39;;;;;;;9.88;5.20;;;;;;;26.88;61.92;97254.91;4484959;31;20126;-84
2023/08/28 00:05:06;;;;;;;11.45;5.32;;;;;;;26.78;61.29;97242.78;4485090;32;20127;-84
2023/08/28 00:07:33;;;;;;;11.68;5.00;;;;;;;26.13;64.68;97248.87;4486079;31;20523;-84
2023/08/28 00:10:00;;;;;;;12.43;5.30;;;;;;;26.62;62.21;97239.56;4486061;32;20123;-84
2023/08/28 00:12:27;;;;;;;9.13;4.30;;;;;;;26.57;62.75;97249.87;4484779;32;20092;-84
2023/08/28 00:14:54;;;;;;;10.85;4.95;;;;;;;25.83;64.62;97250.69;4484519;32;20111;-84
2023/08/28 00:17:22;;;;;;;9.98;4.35;;;;;;;26.37;62.99;97247.81;4486648;32;20151;-84
2023/08/28 00:19:49;;;;;;;10.27;4.82;;;;;;;26.16;63.15;97245.88;4488456;31;20455;-84
2023/08/28 00:22:16;;;;;;;9.65;4.60;;;;;;;26.85;60.94;97237.56;4486983;32;20124;-84
2023/08/28 00:24:43;;;;;;;10.90;4.57;;;;;;;26.30;62.96;97231.00;4488236;31;20163;-84
2023/08/28 00:27:10;;;;;;;8.90;4.53;;;;;;;26.68;61.18;97229.03;4488141;31;20080;-84
2023/08/28 00:29:37;;;;;;;8.98;4.47;;;;;;;25.82;64.72;97242.94;4488232;32;20115;-84
2023/08/28 00:32:04;;;;;;;10.95;4.40;;;;;;;26.20;63.23;97236.56;4474091;32;20123;-84
2023/08/28 00:34:31;;;;;;;8.90;4.57;;;;;;;26.36;62.46;97224.97;4486885;32;20112;-84
2023/08/28 00:36:58;;;;;;;9.65;4.72;;;;;;;25.46;65.89;97224.28;4488124;32;20084;-84
2023/08/28 00:39:25;;;;;;;11.55;4.15;;;;;;;25.32;66.76;97229.34;4486770;32;20164;-84
2023/08/28 00:41:52;;;;;;;9.88;4.78;;;;;;;25.69;64.76;97217.13;4486887;31;20112;-84
2023/08/28 00:44:20;;;;;;;8.40;4.03;;;;;;;25.85;64.03;97213.53;4488148;31;20107;-84
2023/08/28 00:46:47;;;;;;;8.43;3.95;;;;;;;25.63;64.49;97216.03;4473861;32;20099;-84
2023/08/28 00:49:14;;;;;;;11.00;4.40;;;;;;;26.66;60.34;97206.41;4488237;32;20130;-84
2023/08/28 00:51:41;;;;;;;12.85;4.60;;;;;;;26.79;59.85;97215.31;4486898;31;20131;-84
2023/08/28 00:54:08;;;;;;;8.73;4.30;;;;;;;;;;4488053;31;20084;-84
2023/08/28 00:56:36;;;;;;;7.57;3.62;;;;;;;26.27;61.74;97220.00;4488026;31;20439;-84
2023/08/28 00:59:04;;;;;;;9.50;3.83;;;;;;;26.59;60.25;97219.59;4487039;32;20104;-84
2023/08/28 01:01:31;;;;;;;8.13;3.87;;;;;;;26.59;60.15;97218.78;4487964;31;20406;-84
2023/08/28 01:03:58;;;;;;;8.18;3.75;;;;;;;26.83;58.99;97217.59;4487840;31;20104;-84
2023/08/28 01:06:44;;;;;;;9.95;3.80;;;;;;;26.53;59.90;97213.22;4487923;31;20088;-84
2023/08/28 01:09:44;;;;;;;9.82;3.85;;;;;;;26.65;59.25;97221.47;4473718;32;20493;-84
2023/08/28 01:12:44;;;;;;;8.93;3.97;;;;;;;25.77;62.92;97227.63;4487888;31;20498;-84
2023/08/28 01:15:21;;;;;;;9.68;3.90;;;;;;;26.75;59.25;97234.41;4486698;32;20104;-84
2023/08/28 01:17:54;;;;;;;8.82;3.70;;;;;;;25.65;62.96;97235.16;4486812;32;20144;-84
2023/08/28 01:20:22;;;;;;;8.25;3.87;;;;;;;25.60;63.40;97239.31;4486923;32;20096;-84
2023/08/28 01:22:58;;;;;;;8.07;3.72;;;;;;;;;;4486620;31;20144;-83
2023/08/28 01:25:26;;;;;;;9.38;4.07;;;;;;;25.14;65.12;97233.28;4488002;31;20089;-84
2023/08/28 01:27:54;;;;;;;7.28;3.42;;;;;;;25.00;65.46;97225.13;4487482;31;20084;-84
2023/08/28 01:30:21;;;;;;;7.90;3.78;;;;;;;25.76;62.66;97230.47;4486648;32;20146;-83
2023/08/28 01:32:48;;;;;;;8.15;3.70;;;;;;;25.47;63.96;97226.72;4486600;31;20506;-84
2023/08/28 01:35:25;;;;;;;7.93;3.53;;;;;;;24.55;66.94;97211.87;4487657;31;20494;-83
2023/08/28 01:38:19;;;;;;;8.20;3.55;;;;;;;24.91;66.63;97231.44;4473558;32;20152;-84
2023/08/28 01:41:03;;;;;;;7.12;3.35;;;;;;;24.77;66.60;97232.16;4487824;31;20096;-84
2023/08/28 01:43:37;;;;;;;9.60;3.78;;;;;;;24.61;68.13;97229.66;4487806;31;20140;-84
2023/08/28 01:46:08;;;;;;;7.40;3.50;;;;;;;25.13;65.67;97231.66;4486569;32;20159;-83
2023/08/28 01:48:35;;;;;;;8.88;3.35;;;;;;;24.34;68.30;97223.81;4486676;32;20080;-83
2023/08/28 01:51:02;;;;;;;10.35;3.40;;;;;;;24.63;66.93;97223.19;4486562;32;20112;-83
2023/08/28 01:53:29;;;;;;;7.70;3.50;;;;;;;23.81;71.56;97230.56;4487569;31;20096;-84
2023/08/28 01:56:09;;;;;;;6.97;3.20;;;;;;;24.18;70.03;97231.78;4486180;32;20454;-84
2023/08/28 01:58:36;;;;;;;9.65;3.50;;;;;;;23.88;70.72;97233.34;4487733;31;20073;-84
2023/08/28 02:01:03;;;;;;;7.43;3.47;;;;;;;23.79;71.88;97237.00;4486476;32;20138;-84
2023/08/28 02:03:30;;;;;;;9.35;3.80;;;;;;;24.10;70.81;97230.00;4486313;31;20108;-84
2023/08/28 02:05:57;;;;;;;7.65;3.40;;;;;;;23.72;72.22;97223.69;4473327;32;20123;-84
2023/08/28 02:08:24;;;;;;;7.07;3.37;;;;;;;23.43;74.25;97221.56;4486537;32;20522;-84
2023/08/28 02:10:52;;;;;;;10.20;3.65;;;;;;;23.93;71.82;97233.69;4486345;32;20119;-83
2023/08/28 02:13:19;;;;;;;8.13;3.30;;;;;;;24.16;70.31;97220.59;4486320;32;20118;-84
2023/08/28 02:15:46;;;;;;;7.78;3.60;;;;;;;23.50;74.06;97217.28;4486170;32;20100;-83
2023/08/28 02:18:13;;;;;;;8.30;3.60;;;;;;;23.93;72.63;97225.78;4486346;32;20100;-84
2023/08/28 02:20:40;;;;;;;8.20;3.30;;;;;;;23.92;72.10;97222.31;4473308;32;20175;-84
2023/08/28 02:23:07;;;;;;;7.45;3.40;;;;;;;24.19;70.62;97228.97;4487291;32;20131;-83
2023/08/28 02:25:34;;;;;;;9.35;3.87;;;;;;;24.37;69.85;97223.50;4486297;32;20088;-84
2023/08/28 02:28:01;;;;;;;9.05;3.90;;;;;;;23.64;72.78;97221.06;4487347;31;20080;-83
2023/08/28 02:30:28;;;;;;;7.45;3.42;;;;;;;24.03;71.47;97220.28;4487496;32;20107;-84
2023/08/28 02:32:55;;;;;;;8.07;3.40;;;;;;;23.72;73.69;97225.50;4487346;31;20167;-84
2023/08/28 02:35:22;;;;;;;6.93;3.03;;;;;;;23.25;75.25;97213.81;4487321;31;20072;-84
2023/08/28 02:37:49;;;;;;;7.50;3.35;;;;;;;23.99;71.03;97219.81;4472554;32;20151;-83
2023/08/28 02:40:16;;;;;;;8.77;3.28;;;;;;;23.45;74.47;97218.75;4486721;32;20112;-84
2023/08/28 02:42:43;;;;;;;9.38;3.47;;;;;;;22.98;76.54;97229.94;4485976;32;20688;-83
2023/08/28 02:45:10;;;;;;;8.10;3.55;;;;;;;23.35;75.11;97230.28;4486000;32;20155;-84
2023/08/28 02:47:37;;;;;;;7.82;3.12;;;;;;;23.97;72.00;97231.53;4486008;32;20140;-84
2023/08/28 02:50:04;;;;;;;7.75;3.33;;;;;;;24.12;70.55;97238.53;4486050;32;20108;-83
2023/08/28 02:52:31;;;;;;;8.45;3.15;;;;;;;23.79;71.67;97243.09;4485939;32;20095;-83
2023/08/28 02:54:58;;;;;;;9.80;3.45;;;;;;;23.99;70.53;97242.72;4486955;32;20092;-84
2023/08/28 02:57:25;;;;;;;7.72;3.30;;;;;;;24.11;70.53;97244.00;4485802;32;20137;-84
2023/08/28 02:59:52;;;;;;;8.55;3.28;;;;;;;23.60;71.84;97246.91;4487234;31;20137;-84
2023/08/28 03:02:19;;;;;;;7.70;3.22;;;;;;;23.40;72.86;97248.22;4486938;32;20147;-83
2023/08/28 03:04:46;;;;;;;8.50;3.20;;;;;;;23.42;72.80;97242.78;4487005;31;20103;-84
2023/08/28 03:07:13;;;;;;;7.12;2.95;;;;;;;23.99;70.77;97253.25;4486992;32;20115;-84
2023/08/28 03:09:40;;;;;;;8.50;3.20;;;;;;;23.65;72.04;97249.87;4486893;32;20123;-84
2023/08/28 03:12:07;;;;;;;6.85;2.90;;;;;;;22.85;75.46;97245.38;4486719;32;20088;-84
2023/08/28 03:14:34;;;;;;;7.03;3.20;;;;;;;23.50;73.33;97258.56;4485629;32;20093;-83
2023/08/28 03:17:01;;;;;;;8.05;3.20;;;;;;;22.91;76.14;97263.13;4485631;32;20068;-84
2023/08/28 03:19:28;;;;;;;8.55;3.40;;;;;;;23.54;72.47;97260.72;4486908;31;20157;-84
2023/08/28 03:21:55;;;;;;;8.15;3.28;;;;;;;23.37;73.40;97254.63;4486694;32;20144;-83
2023/08/28 03:24:22;;;;;;;8.60;3.37;;;;;;;22.99;75.35;97255.28;4486771;32;20088;-83
2023/08/28 03:26:49;;;;;;;7.43;3.08;;;;;;;23.51;72.47;97261.06;4485337;32;20135;-83
2023/08/28 03:29:16;;;;;;;7.18;3.08;;;;;;;23.83;71.14;97267.31;4486747;32;20160;-83
2023/08/28 03:31:43;;;;;;;7.47;3.05;;;;;;;24.51;67.60;97264.97;4486569;31;20127;-83
2023/08/28 03:34:10;;;;;;;6.97;3.20;;;;;;;23.68;71.06;97256.59;4485287;32;20084;-84
2023/08/28 03:36:37;;;;;;;7.87;3.47;;;;;;;23.69;70.86;97257.44;4486357;32;20193;-83
2023/08/28 03:39:04;;;;;;;7.30;3.08;;;;;;;23.70;71.28;97261.69;4485027;32;20111;-84
2023/08/28 03:41:31;;;;;;;7.78;3.05;;;;;;;24.08;69.49;97268.88;4486432;31;20093;-83
2023/08/28 03:43:58;;;;;;;7.20;2.90;;;;;;;23.31;72.32;97259.72;4486544;31;20122;-83
2023/08/28 03:46:25;;;;;;;10.13;2.85;;;;;;;23.47;72.06;97259.72;4472138;32;20099;-83
2023/08/28 03:48:52;;;;;;;7.07;2.92;;;;;;;23.64;70.61;97265.84;4472354;32;20120;-83
2023/08/28 03:51:18;;;;;;;7.65;2.72;;;;;;;23.31;72.58;97265.00;4488112;31;20147;-83
2023/08/28 03:53:45;;;;;;;8.65;3.10;;;;;;;23.46;71.31;97260.72;4487267;32;20085;-84
2023/08/28 03:56:12;;;;;;;8.02;3.10;;;;;;;22.86;74.25;97260.97;4487186;32;20084;-83
2023/08/28 03:58:39;;;;;;;7.60;2.75;;;;;;;23.16;72.07;97264.00;4487212;32;20552;-84
2023/08/28 04:01:07;;;;;;;9.65;3.03;;;;;;;22.88;74.13;97253.78;4488493;31;20151;-83
2023/08/28 04:03:34;;;;;;;7.20;2.97;;;;;;;23.46;71.42;97254.63;4487262;31;20084;-83
2023/08/28 04:06:01;;;;;;;6.95;2.72;;;;;;;22.87;74.00;97257.41;4488480;31;20144;-84
2023/08/28 04:08:28;;;;;;;6.07;2.80;;;;;;;23.79;70.24;97265.97;4487275;32;20116;-84
2023/08/28 04:10:58;;;;;;;9.05;3.12;;;;;;;23.27;72.05;97264.47;4487294;32;20116;-84
2023/08/28 04:13:25;;;;;;;7.55;2.80;;;;;;;23.81;69.20;97245.53;4488375;31;20080;-84
2023/08/28 04:15:52;;;;;;;6.07;2.72;;;;;;;24.68;65.05;97243.78;4486979;32;20076;-83
2023/08/28 04:18:19;;;;;;;6.87;2.90;;;;;;;23.21;71.14;97238.03;4487435;32;20104;-83
2023/08/28 04:20:46;;;;;;;8.20;2.97;;;;;;;23.55;70.24;97245.72;4488333;32;20093;-84
2023/08/28 04:23:13;;;;;;;6.12;2.70;;;;;;;23.90;68.30;97253.28;4487107;31;20076;-84
2023/08/28 04:25:40;;;;;;;9.55;3.42;;;;;;;24.28;65.92;97248.22;4488257;32;20122;-84
2023/08/28 04:28:07;;;;;;;7.65;3.37;;;;;;;23.90;68.11;97249.81;4487048;32;20108;-84
2023/08/28 04:30:34;;;;;;;8.18;3.30;;;;;;;24.66;65.25;97241.31;4488312;32;20087;-83
2023/08/28 04:33:01;;;;;;;7.93;3.05;;;;;;;25.11;63.19;97231.00;4488200;31;20089;-83
2023/08/28 04:35:28;;;;;;;6.95;3.45;;;;;;;23.96;67.83;97217.53;4486859;32;20112;-84
2023/08/28 04:37:55;;;;;;;8.43;2.90;;;;;;;24.37;66.69;97215.59;4486904;31;20172;-84
2023/08/28 04:40:22;;;;;;;8.25;3.28;;;;;;;24.58;66.35;97215.00;4488431;31;20215;-84
2023/08/28 04:42:49;;;;;;;8.90;2.90;;;;;;;24.29;66.83;97207.69;4486874;31;20100;-84
2023/08/28 04:45:16;;;;;;;11.27;3.20;;;;;;;24.17;68.00;97207.25;4487053;32;20072;-84
2023/08/28 04:47:43;;;;;;;8.05;3.37;;;;;;;24.44;67.13;97199.88;4486888;32;20131;-84
2023/08/28 04:50:10;;;;;;;8.18;3.22;;;;;;;25.30;63.42;97207.56;4486893;32;20091;-83
2023/08/28 04:52:37;;;;;;;7.85;3.30;;;;;;;25.50;62.61;97220.25;4488019;31;20106;-83
2023/08/28 04:55:04;;;;;;;11.02;3.40;;;;;;;25.66;61.78;97217.47;4486824;32;20152;-84
2023/08/28 04:57:32;;;;;;;8.27;3.17;;;;;;;26.30;59.24;97231.00;4487976;32;20123;-84
2023/08/28 05:00:00;;;;;;;9.13;3.25;;;;;;;26.03;59.76;97240.41;4488099;31;20471;-83
2023/08/28 05:02:27;;;;;;;6.72;2.95;;;;;;;26.07;59.64;97236.41;4487208;32;20115;-84
2023/08/28 05:04:54;;;;;;;6.25;3.00;;;;;;;26.28;59.06;97234.84;4488049;32;20080;-84
2023/08/28 05:07:21;;;;;;;7.45;3.12;;;;;;;26.34;58.66;97226.97;4486640;32;20135;-84
2023/08/28 05:09:48;;;;;;;7.40;2.90;;;;;;;25.83;60.01;97218.16;4488093;31;20160;-83
2023/08/28 05:12:15;;;;;;;8.88;3.65;;;;;;;25.68;61.30;97215.47;4486641;32;20147;-83
2023/08/28 05:14:42;;;;;;;8.63;3.72;;;;;;;25.39;63.04;97224.97;4486764;32;20139;-84
2023/08/28 05:17:09;;;;;;;9.07;3.72;;;;;;;25.16;63.60;97215.44;4487681;31;20148;-84
2023/08/28 05:19:36;;;;;;;9.48;3.62;;;;;;;25.58;62.52;97214.91;4488026;32;20100;-84
2023/08/28 05:22:03;;;;;;;8.75;3.92;;;;;;;25.36;63.18;97217.41;4486695;31;20115;-84
2023/08/28 05:24:30;;;;;;;7.22;3.28;;;;;;;25.83;61.57;97215.50;4486701;32;20110;-84
2023/08/28 05:26:57;;;;;;;8.10;3.80;;;;;;;26.32;59.72;97213.13;4487679;32;20108;-84
2023/08/28 05:29:24;;;;;;;6.97;3.20;;;;;;;25.18;63.57;97205.53;4487866;32;20187;-84
2023/08/28 05:31:51;;;;;;;9.15;3.40;;;;;;;26.03;60.71;97190.16;4486532;32;20183;-83
2023/08/28 05:34:18;;;;;;;7.07;3.45;;;;;;;25.64;61.37;97195.72;4486799;32;20089;-83
2023/08/28 05:36:45;;;;;;;6.50;3.15;;;;;;;25.23;62.70;97190.00;4487665;31;20096;-83
2023/08/28 05:39:12;;;;;;;6.68;3.05;;;;;;;25.05;64.07;97183.19;4487584;31;20104;-83
2023/08/28 05:41:39;;;;;;;8.63;3.50;;;;;;;25.47;62.78;97181.03;4487692;31;20152;-83
2023/08/28 05:44:06;;;;;;;8.07;3.12;;;;;;;25.97;60.90;97176.91;4487700;31;20107;-83
2023/08/28 05:46:33;;;;;;;6.80;3.08;;;;;;;26.41;58.31;97176.84;4486515;32;20153;-83
2023/08/28 05:49:00;;;;;;;16.25;5.62;;;;;;;26.37;58.04;97176.41;4486693;32;20127;-84
2023/08/28 05:51:27;;;;;;;8.80;3.00;;;;;;;27.28;55.64;97176.69;4487509;31;20108;-83
2023/08/28 05:53:54;;;;;;;7.50;3.10;;;;;;;28.22;52.79;97169.94;4487543;31;20119;-83
2023/08/28 05:56:20;;;;;;;7.90;3.10;;;;;;;28.49;50.93;97162.91;4487387;31;20096;-83
2023/08/28 05:58:47;;;;;;;7.97;3.17;;;;;;;27.49;54.06;97163.41;4487871;32;20708;-83
2023/08/28 06:01:14;;;;;;;11.50;3.10;;;;;;;27.29;55.02;97165.91;4487265;32;20080;-83
2023/08/28 06:03:41;;;;;;;6.40;2.97;;;;;;;28.08;52.17;97165.63;4487323;32;20088;-84
2023/08/28 06:06:10;;;;;;;7.47;3.12;;;;;;;28.62;50.38;97179.91;4487026;31;20111;-83
2023/08/28 06:08:37;;;;;;;8.52;3.22;;;;;;;29.17;49.40;97165.53;4487137;32;20168;-81
2023/08/28 06:11:04;;;;;;;5.97;2.87;;;;;;;29.09;49.02;97171.03;4487397;32;20175;-81
2023/08/28 06:13:31;;;;;;;12.37;2.97;;;;;;;28.94;49.57;97168.56;4487060;31;20136;-81
2023/08/28 06:15:58;;;;;;;9.63;3.20;;;;;;;30.02;47.67;97165.63;4487242;32;20171;-80
2023/08/28 06:18:25;;;;;;;6.93;3.20;;;;;;;29.28;48.75;97167.56;4487583;31;20419;-80
2023/08/28 06:20:53;;;;;;;8.05;3.22;;;;;;;28.86;49.02;97155.44;4487245;31;20167;-81
2023/08/28 06:23:21;;;;;;;8.30;3.45;;;;;;;29.00;48.72;97165.09;4487130;32;20151;-81
2023/08/28 06:25:48;;;;;;;7.28;3.53;;;;;;;28.41;50.16;97163.13;4487728;31;20099;-81
2023/08/28 06:28:15;;;;;;;6.72;3.17;;;;;;;28.88;49.83;97160.56;4487159;32;20535;-82
2023/08/28 06:30:42;;;;;;;7.32;2.92;;;;;;;29.73;47.32;97157.09;4487429;31;20143;-82
2023/08/28 06:33:09;;;;;;;7.85;3.05;;;;;;;30.81;45.38;97155.44;4487228;31;20107;-81
2023/08/28 06:35:36;;;;;;;6.60;3.10;;;;;;;30.72;44.99;97154.06;4486865;31;20110;-83
2023/08/28 06:38:03;;;;;;;6.82;3.10;;;;;;;30.32;45.67;97152.66;4479046;31;248983;-83
2023/08/28 06:40:45;;;;;;;8.43;3.47;;;;;;;30.75;44.65;97147.50;4486097;32;20084;-81
2023/08/28 06:43:24;;;;;;;9.38;3.30;;;;;;;31.41;43.52;97151.53;4486912;32;20164;-81
2023/08/28 06:45:51;;;;;;;6.70;3.00;;;;;;;31.61;42.95;97144.16;4487120;31;20119;-81
2023/08/28 06:48:18;;;;;;;6.80;2.80;;;;;;;31.37;42.97;97135.97;4487205;31;20461;-84
2023/08/28 06:50:45;;;;;;;7.95;3.50;;;;;;;31.07;44.17;97141.13;4487068;32;20120;-81
2023/08/28 06:53:12;;;;;;;9.32;3.35;;;;;;;31.10;43.70;97137.19;4487043;32;20110;-82
2023/08/28 06:55:39;;;;;;;8.18;3.53;;;;;;;29.20;47.64;97135.06;4486715;31;20175;-81
2023/08/28 06:58:06;;;;;;;8.98;3.20;;;;;;;30.09;45.99;97135.31;4487055;32;20164;-81
2023/08/28 07:00:53;;;;;;;9.25;3.53;;;;;;;29.71;47.29;97131.75;4486954;32;20466;-81
2023/08/28 07:03:29;;;;;;;8.98;3.72;;;;;;;29.73;47.42;97127.03;4486777;32;20525;-82
2023/08/28 07:05:56;;;;;;;11.32;3.60;;;;;;;29.65;47.50;97128.88;4486727;31;20469;-81
2023/08/28 07:08:23;;;;;;;7.10;3.33;;;;;;;29.76;47.38;97127.44;4487530;31;20092;-81
2023/08/28 07:10:50;;;;;;;7.87;3.40;;;;;;;30.53;45.87;97128.37;4487715;32;20140;-83
2023/08/28 07:13:18;;;;;;;7.85;3.47;;;;;;;30.38;46.07;97119.84;4488947;31;20084;-82
2023/08/28 07:15:45;;;;;;;8.57;3.70;;;;;;;28.90;49.12;97127.50;4486971;31;20160;-82
2023/08/28 07:18:11;;;;;;;8.38;3.50;;;;;;;29.75;48.04;97128.47;4487480;31;20106;-81
2023/08/28 07:20:38;;;;;;;7.60;3.37;;;;;;;31.06;44.66;97120.03;4486972;31;20084;-82
2023/08/28 07:23:05;;;;;;;9.48;3.80;;;;;;;30.67;45.48;97121.13;4486499;32;20080;-80
2023/08/28 07:25:32;;;;;;;7.78;3.45;;;;;;;32.01;43.10;97117.91;4487535;31;20118;-80
2023/08/28 07:28:00;;;;;;;6.85;2.92;;;;;;;31.67;43.09;97109.41;4488658;31;20106;-81
2023/08/28 07:30:26;;;;;;;9.25;3.40;;;;;;;31.45;44.11;97123.38;4488324;31;20103;-81
2023/08/28 07:32:53;;;;;;;6.72;2.90;;;;;;;32.77;41.86;97137.84;4488497;31;20145;-82
2023/08/28 07:35:20;;;;;;;8.57;3.40;;;;;;;34.23;39.00;97136.91;4488524;31;20107;-80
2023/08/28 07:37:47;;;;;;;9.63;3.70;;;;;;;34.79;37.84;97135.31;4487913;31;20207;-80
2023/08/28 07:40:15;;;;;;;9.90;3.78;;;;;;;35.06;36.98;97137.38;4489752;31;20080;-81
2023/08/28 07:42:41;;;;;;;8.52;4.00;;;;;;;34.04;38.14;97134.69;4491703;31;20152;-81
2023/08/28 07:45:09;;;;;;;9.43;3.45;;;;;;;31.58;42.91;97123.25;4488713;32;20100;-81
2023/08/28 07:47:38;;;;;;;8.98;3.72;;;;;;;31.42;43.94;97113.16;4492773;31;20078;-82
2023/08/28 07:50:05;;;;;;;12.85;4.35;;;;;;;31.98;43.35;97112.16;4490617;31;20057;-82
2023/08/28 07:52:32;;;;;;;11.05;4.72;;;;;;;33.02;41.04;97117.12;4489662;31;20103;-82
2023/08/28 07:54:59;;;;;;;9.25;3.75;;;;;;;32.98;41.14;97120.50;4491256;32;20104;-82
2023/08/28 07:57:26;;;;;;;7.80;3.70;;;;;;;33.23;40.93;97122.94;4497251;31;20108;-82
2023/08/28 07:59:53;;;;;;;7.40;3.70;;;;;;;33.44;40.45;97119.72;4488411;31;20158;-82
2023/08/28 08:02:20;;;;;;;9.23;3.60;;;;;;;33.34;40.87;97116.78;4487220;31;20118;-82
2023/08/28 08:04:47;;;;;;;6.85;3.83;;;;;;;33.39;40.20;97119.63;4489006;31;20156;-82
2023/08/28 08:07:14;;;;;;;7.65;3.50;;;;;;;33.56;40.25;97127.72;4490396;31;20092;-82
2023/08/28 08:09:41;;;;;;;8.50;3.78;;;;;;;33.81;40.50;97133.63;4491493;32;20445;-82
2023/08/28 08:12:08;;;;;;;9.23;3.83;;;;;;;34.14;40.31;97124.19;4489906;31;20167;-83
2023/08/28 08:14:35;;;;;;;7.75;3.80;;;;;;;33.23;40.69;97120.28;4489071;32;20369;-83
2023/08/28 08:17:02;;;;;;;7.97;3.90;;;;;;;32.69;41.78;97112.25;4492606;31;20118;-82
2023/08/28 08:19:29;;;;;;;7.45;3.62;;;;;;;33.41;40.30;97114.84;4492008;31;20096;-82
2023/08/28 08:21:56;;;;;;;10.15;3.78;;;;;;;33.08;41.05;97104.69;4490362;31;20514;-79
2023/08/28 08:24:23;;;;;;;9.38;4.30;;;;;;;33.02;41.59;97108.28;4488148;31;20186;-79
2023/08/28 08:26:50;;;;;;;10.82;4.28;;;;;;;32.59;42.31;97106.66;4489719;32;20589;-79
2023/08/28 08:29:17;;;;;;;9.75;3.97;;;;;;;31.32;45.02;97095.03;4488374;31;20491;-82
2023/08/28 08:31:44;;;;;;;12.02;4.45;;;;;;;31.20;45.64;97086.94;4488422;31;20088;-83
2023/08/28 08:34:11;;;;;;;9.70;4.28;;;;;;;31.52;45.25;97078.81;4487721;32;20089;-78
2023/08/28 08:36:39;;;;;;;9.63;4.25;;;;;;;31.02;45.75;97077.00;4487268;31;20155;-79
2023/08/28 08:39:06;;;;;;;13.18;4.68;;;;;;;30.86;45.71;97080.25;4489270;31;20099;-80
2023/08/28 08:41:33;;;;;;;11.30;4.68;;;;;;;31.29;45.31;97082.13;4487851;31;20085;-79
2023/08/28 08:44:00;;;;;;;8.40;4.70;;;;;;;32.94;42.63;97082.72;4487964;31;20107;-78
2023/08/28 08:46:27;;;;;;;10.20;4.80;;;;;;;31.59;44.94;97069.72;4487820;32;20151;-78
2023/08/28 08:48:56;;;;;;;10.88;4.50;;;;;;;31.60;45.02;97070.53;4487743;31;20443;-77
2023/08/28 08:51:25;;;;;;;9.35;4.65;;;;;;;32.66;42.36;97075.34;4487846;32;20080;-77
2023/08/28 08:54:12;;;;;;;12.13;4.90;;;;;;;33.18;42.64;97082.72;4487792;31;20442;-78
2023/08/28 08:56:40;;;;;;;11.52;5.05;;;;;;;31.81;44.27;97071.97;4486134;32;20096;-77
2023/08/28 08:59:08;;;;;;;9.38;4.85;;;;;;;31.08;46.28;97075.34;4486842;32;20084;-77
2023/08/28 09:01:37;;;;;;;11.43;4.93;;;;;;;29.74;49.36;97067.53;4487732;31;20076;-77
2023/08/28 09:04:04;;;;;;;14.05;5.68;;;;;;;29.81;49.96;97069.13;4486676;32;20487;-78
2023/08/28 09:06:34;;;;;;;13.25;5.82;;;;;;;30.43;48.16;97064.97;4487679;31;20135;-78
2023/08/28 09:09:01;;;;;;;9.57;4.85;;;;;;;30.99;46.14;97068.66;4487388;32;20175;-78
2023/08/28 09:11:28;;;;;;;9.65;4.65;;;;;;;31.33;45.83;97065.47;4487684;31;20089;-77
2023/08/28 09:13:55;;;;;;;10.73;5.37;;;;;;;32.77;42.65;97077.22;4487795;32;20136;-77
2023/08/28 09:16:22;;;;;;;12.10;4.90;;;;;;;33.14;43.57;97081.56;4486060;32;20149;-77
2023/08/28 09:18:49;;;;;;;11.23;5.57;;;;;;;31.71;45.35;97067.13;4487688;31;20084;-77
2023/08/28 09:21:16;;;;;;;10.52;5.07;;;;;;;32.30;43.57;97068.25;4487539;31;20119;-77
2023/08/28 09:23:46;;;;;;;11.43;4.95;;;;;;;32.89;42.36;97076.44;4487320;31;20139;-77
2023/08/28 09:26:21;;;;;;;9.68;5.05;;;;;;;32.28;44.51;97064.97;4487641;32;20153;-76
2023/08/28 09:29:06;;;;;;;9.98;5.00;;;;;;;32.44;43.90;97069.72;4487736;31;20163;-75
2023/08/28 09:31:34;;;;;;;11.95;5.15;;;;;;;32.48;44.12;97060.19;4473732;31;20479;-76
2023/08/28 09:34:03;;;;;;;11.27;4.47;;;;;;;31.68;45.54;97059.56;4487798;31;20108;-75
2023/08/28 09:36:37;;;;;;;9.63;4.87;;;;;;;31.62;45.71;97055.94;4487276;31;20104;-76
2023/08/28 09:39:08;;;;;;;10.13;5.25;;;;;;;32.38;44.09;97062.59;4485966;31;20406;-76
2023/08/28 09:41:38;;;;;;;14.35;5.40;;;;;;;32.52;43.18;97060.53;4487475;32;20172;-76
2023/08/28 09:44:05;;;;;;;9.70;4.87;;;;;;;33.18;42.24;97053.31;4487249;31;20148;-76
2023/08/28 09:46:35;;;;;;;9.77;5.22;;;;;;;33.18;41.94;97046.13;4487470;31;20443;-76
2023/08/28 09:49:02;;;;;;;11.43;5.12;;;;;;;33.10;42.08;97035.78;4487336;32;20098;-76
2023/08/28 09:51:40;;;;;;;11.45;5.57;;;;;;;32.91;42.99;97031.59;4487246;31;20080;-77
2023/08/28 09:54:08;;;;;;;9.90;5.10;;;;;;;33.64;41.37;97029.22;4487560;31;20159;-77
2023/08/28 09:56:36;;;;;;;11.30;5.03;;;;;;;33.75;40.88;97027.56;4487266;31;20110;-77
2023/08/28 09:59:04;;;;;;;10.85;5.47;;;;;;;34.13;40.54;97023.47;4487461;31;20442;-77
2023/08/28 10:01:33;;;;;;;10.60;5.47;;;;;;;34.99;38.66;97016.13;4487376;31;20401;-78
2023/08/28 10:04:01;;;;;;;9.45;5.22;;;;;;;34.15;39.30;97008.03;4487455;31;20111;-77
2023/08/28 10:06:32;;;;;;;12.30;5.25;;;;;;;34.18;40.32;97012.87;4486822;31;20096;-75
2023/08/28 10:09:00;;;;;;;10.70;5.10;;;;;;;32.89;43.00;97012.31;4486317;32;20084;-75
2023/08/28 10:11:35;;;;;;;9.88;5.37;;;;;;;33.33;41.74;97016.25;4487336;31;20084;-75
2023/08/28 10:14:03;;;;;;;10.38;5.40;;;;;;;33.21;42.27;97020.78;4486087;32;20635;-75
2023/08/28 10:16:40;;;;;;;12.77;5.90;;;;;;;34.45;40.16;97019.28;4487307;31;20438;-75
2023/08/28 10:19:46;;;;;;;11.25;5.60;;;;;;;34.99;38.26;97008.09;4486129;32;20178;-75
2023/08/28 10:22:13;;;;;;;11.10;5.50;;;;;;;35.13;38.89;97005.87;4487122;31;20396;-75
2023/08/28 10:24:44;;;;;;;11.43;5.60;;;;;;;32.89;42.17;96994.44;4485981;32;20104;-75
2023/08/28 10:27:12;;;;;;;10.85;5.80;;;;;;;33.13;41.89;96994.41;4486863;31;20168;-75
2023/08/28 10:29:39;;;;;;;9.88;5.20;;;;;;;34.61;39.53;96998.09;4487340;31;20098;-75
2023/08/28 10:32:10;;;;;;;11.52;5.80;;;;;;;34.95;38.81;96989.00;4485993;32;20095;-75
2023/08/28 10:34:42;;;;;;;10.45;4.90;;;;;;;34.91;38.93;96990.56;4486873;31;20092;-75
2023/08/28 10:37:10;;;;;;;14.52;5.28;;;;;;;36.48;35.84;96988.13;4487165;31;20099;-75
2023/08/28 10:39:52;;;;;;;11.85;5.05;;;;;;;35.57;38.13;96986.09;4485956;32;20435;-74
2023/08/28 10:42:19;;;;;;;9.45;4.53;;;;;;;35.06;38.71;96973.88;4487016;31;20152;-76
2023/08/28 10:44:47;;;;;;;11.63;5.25;;;;;;;33.61;41.03;96962.84;4487088;32;20111;-74
2023/08/28 10:47:19;;;;;;;11.48;5.78;;;;;;;33.92;42.17;96963.44;4485554;32;20379;-74
2023/08/28 10:49:46;;;;;;;10.57;4.97;;;;;;;33.67;41.73;96971.75;4487128;32;20126;-74
2023/08/28 10:52:13;;;;;;;9.23;4.95;;;;;;;35.41;38.49;96973.53;4485797;32;20103;-74
2023/08/28 10:54:43;;;;;;;10.02;5.47;;;;;;;34.72;39.20;96970.41;4486614;31;20100;-74
2023/08/28 10:57:27;;;;;;;12.07;5.87;;;;;;;34.67;39.74;96967.66;4486811;31;20095;-74
2023/08/28 10:59:55;;;;;;;13.88;5.18;;;;;;;35.79;38.61;96961.09;4484860;32;20096;-74
2023/08/28 11:02:22;;;;;;;10.05;4.97;;;;;;;35.47;38.64;96956.47;4485312;32;20225;-74
2023/08/28 11:04:49;;;;;;;9.13;4.70;;;;;;;34.41;40.35;96955.72;4486781;32;20116;-74
2023/08/28 11:07:25;;;;;;;11.00;5.90;;;;;;;33.41;42.37;96934.91;4486737;32;20098;-74
2023/08/28 11:10:19;;;;;;;9.37;5.20;;;;;;;33.27;43.71;96926.28;4486593;31;20194;-74
2023/08/28 11:12:53;;;;;;;11.10;5.45;;;;;;;32.37;44.61;96930.19;4486690;32;20186;-74
2023/08/28 11:15:49;;;;;;;12.10;5.70;;;;;;;31.95;46.05;96932.03;4486565;31;20096;-75
2023/08/28 11:18:32;;;;;;;11.45;5.95;;;;;;;32.64;44.40;96932.38;4486560;31;20153;-74
2023/08/28 11:21:01;;;;;;;14.18;5.65;;;;;;;32.95;43.46;96926.69;4486747;32;20103;-74
2023/08/28 11:23:38;;;;;;;9.35;4.53;;;;;;;32.41;44.65;96926.00;4486020;31;20102;-74
2023/08/28 11:26:17;;;;;;;13.68;6.70;;;;;;;32.30;45.16;96916.13;4486431;31;20149;-74
2023/08/28 11:28:46;;;;;;;14.73;7.65;;;;;;;32.94;44.75;96917.06;4486601;31;20083;-75
2023/08/28 11:31:14;;;;;;;13.75;7.43;;;;;;;32.83;43.99;96911.75;4486094;31;20103;-75
2023/08/28 11:33:43;;;;;;;13.55;6.62;;;;;;;33.90;42.61;96918.19;4486185;32;20089;-76
2023/08/28 11:36:20;;;;;;;11.38;6.12;;;;;;;33.81;41.58;96903.53;4484864;32;20148;-76
2023/08/28 11:38:49;;;;;;;11.52;5.43;;;;;;;33.73;41.23;96895.12;4486089;31;20605;-76